Terminal Aerodrome Forecast
Issued by NWS Louisville, KY

Home | Current Version | Previous Version | Text Only | Print | Product List | Glossary On
Versions: 1 2 3 4 5 6 7 8 9 10 11 12 13 14 15 16 17 18 19 20 21 22
217
FTUS43 KLMK 270940 AAA
TAFLEX
TAF AMD
KLEX 270940Z 2710/2806 22007KT P6SM SCT025 BKN040
      TEMPO 2710/2713 BKN025
     FM271300 23007KT P6SM VCSH SCT009 BKN015
      TEMPO 2714/2716 BKN008
     FM271600 24007KT P6SM BKN025
     FM271900 23008KT P6SM VCTS SCT030CB BKN050
     FM280000 VRB04KT P6SM SCT040 BKN250=

USA.gov is the U.S. government's official web portal to all federal, state and local government web resources and services.